sensor_id;sensor_type;location;lat;lon;timestamp;P1;durP1;ratioP1;P2;durP2;ratioP2
45382;SDS011;42455;51.660;5.824;2022-12-10T00:02:43;47.0;;;30.0;;
45382;SDS011;42455;51.660;5.824;2022-12-10T00:07:49;44.0;;;29.0;;
45382;SDS011;42455;51.660;5.824;2022-12-10T00:12:56;45.5;;;30.0;;
45382;SDS011;42455;51.660;5.824;2022-12-10T00:18:02;43.0;;;29.5;;
45382;SDS011;42455;51.660;5.824;2022-12-10T00:23:08;43.0;;;29.0;;
45382;SDS011;42455;51.660;5.824;2022-12-10T00:28:14;43.5;;;29.0;;
45382;SDS011;42455;51.660;5.824;2022-12-10T00:33:20;41.0;;;29.0;;
45382;SDS011;42455;51.660;5.824;2022-12-10T00:38:27;46.0;;;29.0;;
45382;SDS011;42455;51.660;5.824;2022-12-10T00:43:33;44.0;;;29.5;;
45382;SDS011;42455;51.660;5.824;2022-12-10T00:48:39;46.0;;;30.0;;
45382;SDS011;42455;51.660;5.824;2022-12-10T00:53:46;48.5;;;31.0;;
45382;SDS011;42455;51.660;5.824;2022-12-10T00:58:51;47.0;;;30.5;;
45382;SDS011;42455;51.660;5.824;2022-12-10T01:03:58;45.0;;;29.0;;
45382;SDS011;42455;51.660;5.824;2022-12-10T01:09:05;46.0;;;30.0;;
45382;SDS011;42455;51.660;5.824;2022-12-10T01:14:11;44.0;;;30.0;;
45382;SDS011;42455;51.660;5.824;2022-12-10T01:19:16;47.0;;;31.0;;
45382;SDS011;42455;51.660;5.824;2022-12-10T01:24:23;47.0;;;29.5;;
45382;SDS011;42455;51.660;5.824;2022-12-10T01:29:29;48.0;;;31.0;;
45382;SDS011;42455;51.660;5.824;2022-12-10T01:34:35;46.0;;;29.5;;
45382;SDS011;42455;51.660;5.824;2022-12-10T01:39:41;48.0;;;30.0;;
45382;SDS011;42455;51.660;5.824;2022-12-10T01:45:09;46.0;;;30.0;;
45382;SDS011;42455;51.660;5.824;2022-12-10T01:49:54;46.5;;;31.0;;
45382;SDS011;42455;51.660;5.824;2022-12-10T01:55:00;49.0;;;30.0;;
45382;SDS011;42455;51.660;5.824;2022-12-10T02:00:06;47.0;;;30.5;;
45382;SDS011;42455;51.660;5.824;2022-12-10T02:05:13;45.0;;;29.0;;
45382;SDS011;42455;51.660;5.824;2022-12-10T02:10:41;44.0;;;29.5;;
45382;SDS011;42455;51.660;5.824;2022-12-10T02:15:25;47.0;;;31.0;;
45382;SDS011;42455;51.660;5.824;2022-12-10T02:20:31;46.0;;;29.0;;
45382;SDS011;42455;51.660;5.824;2022-12-10T02:25:43;46.0;;;31.0;;
45382;SDS011;42455;51.660;5.824;2022-12-10T02:30:43;46.0;;;30.0;;
45382;SDS011;42455;51.660;5.824;2022-12-10T02:35:50;48.0;;;30.0;;
45382;SDS011;42455;51.660;5.824;2022-12-10T02:40:57;48.0;;;30.5;;
45382;SDS011;42455;51.660;5.824;2022-12-10T02:46:02;47.0;;;30.0;;
45382;SDS011;42455;51.660;5.824;2022-12-10T02:51:08;47.0;;;31.0;;
45382;SDS011;42455;51.660;5.824;2022-12-10T02:56:22;45.5;;;29.0;;
45382;SDS011;42455;51.660;5.824;2022-12-10T03:02:02;46.0;;;29.5;;
45382;SDS011;42455;51.660;5.824;2022-12-10T03:06:32;49.0;;;31.0;;
45382;SDS011;42455;51.660;5.824;2022-12-10T03:11:33;48.0;;;31.0;;
45382;SDS011;42455;51.660;5.824;2022-12-10T03:16:42;48.0;;;31.0;;
45382;SDS011;42455;51.660;5.824;2022-12-10T03:21:45;49.5;;;32.0;;
45382;SDS011;42455;51.660;5.824;2022-12-10T03:26:51;47.0;;;30.5;;
45382;SDS011;42455;51.660;5.824;2022-12-10T03:31:58;48.0;;;32.0;;
45382;SDS011;42455;51.660;5.824;2022-12-10T03:37:04;54.0;;;33.0;;
45382;SDS011;42455;51.660;5.824;2022-12-10T03:42:10;49.0;;;33.0;;
45382;SDS011;42455;51.660;5.824;2022-12-10T03:47:16;50.0;;;32.0;;
45382;SDS011;42455;51.660;5.824;2022-12-10T03:52:22;52.0;;;33.0;;
45382;SDS011;42455;51.660;5.824;2022-12-10T03:57:29;52.0;;;33.0;;
45382;SDS011;42455;51.660;5.824;2022-12-10T04:02:35;51.0;;;32.0;;
45382;SDS011;42455;51.660;5.824;2022-12-10T04:07:41;52.0;;;32.5;;
45382;SDS011;42455;51.660;5.824;2022-12-10T04:12:47;50.5;;;32.5;;
45382;SDS011;42455;51.660;5.824;2022-12-10T04:17:53;53.5;;;34.0;;
45382;SDS011;42455;51.660;5.824;2022-12-10T04:23:00;53.0;;;35.0;;
45382;SDS011;42455;51.660;5.824;2022-12-10T04:28:06;63.0;;;37.0;;
45382;SDS011;42455;51.660;5.824;2022-12-10T04:33:12;63.5;;;38.0;;
45382;SDS011;42455;51.660;5.824;2022-12-10T04:38:18;68.0;;;37.0;;
45382;SDS011;42455;51.660;5.824;2022-12-10T04:43:23;70.0;;;36.5;;
45382;SDS011;42455;51.660;5.824;2022-12-10T04:48:30;69.0;;;36.5;;
45382;SDS011;42455;51.660;5.824;2022-12-10T04:53:36;64.5;;;37.0;;
45382;SDS011;42455;51.660;5.824;2022-12-10T04:58:42;76.0;;;39.0;;
45382;SDS011;42455;51.660;5.824;2022-12-10T05:03:48;61.0;;;35.5;;
45382;SDS011;42455;51.660;5.824;2022-12-10T05:08:55;86.0;;;36.0;;
45382;SDS011;42455;51.660;5.824;2022-12-10T05:14:00;85.5;;;36.0;;
45382;SDS011;42455;51.660;5.824;2022-12-10T05:19:06;74.0;;;36.0;;
45382;SDS011;42455;51.660;5.824;2022-12-10T05:24:12;90.0;;;37.0;;
45382;SDS011;42455;51.660;5.824;2022-12-10T05:29:18;66.0;;;37.0;;
45382;SDS011;42455;51.660;5.824;2022-12-10T05:34:25;85.0;;;39.0;;
45382;SDS011;42455;51.660;5.824;2022-12-10T05:39:31;92.0;;;38.5;;
45382;SDS011;42455;51.660;5.824;2022-12-10T05:44:37;114.0;;;39.5;;
45382;SDS011;42455;51.660;5.824;2022-12-10T05:49:43;98.0;;;37.0;;
45382;SDS011;42455;51.660;5.824;2022-12-10T05:54:49;96.5;;;40.0;;
45382;SDS011;42455;51.660;5.824;2022-12-10T05:59:56;86.0;;;39.0;;
45382;SDS011;42455;51.660;5.824;2022-12-10T06:05:02;102.0;;;39.5;;
45382;SDS011;42455;51.660;5.824;2022-12-10T06:10:08;80.0;;;40.5;;
45382;SDS011;42455;51.660;5.824;2022-12-10T06:15:14;83.0;;;40.0;;
45382;SDS011;42455;51.660;5.824;2022-12-10T06:20:21;91.0;;;42.0;;
45382;SDS011;42455;51.660;5.824;2022-12-10T06:25:27;83.0;;;41.0;;
45382;SDS011;42455;51.660;5.824;2022-12-10T06:30:33;83.0;;;41.0;;
45382;SDS011;42455;51.660;5.824;2022-12-10T06:35:39;76.0;;;41.0;;
45382;SDS011;42455;51.660;5.824;2022-12-10T06:40:45;84.0;;;43.0;;
45382;SDS011;42455;51.660;5.824;2022-12-10T06:45:52;82.0;;;42.0;;
45382;SDS011;42455;51.660;5.824;2022-12-10T06:50:58;84.0;;;42.5;;
45382;SDS011;42455;51.660;5.824;2022-12-10T06:56:05;77.0;;;41.0;;
45382;SDS011;42455;51.660;5.824;2022-12-10T07:01:13;86.5;;;40.0;;
45382;SDS011;42455;51.660;5.824;2022-12-10T07:06:16;80.0;;;41.5;;
45382;SDS011;42455;51.660;5.824;2022-12-10T07:11:23;79.5;;;39.5;;
45382;SDS011;42455;51.660;5.824;2022-12-10T07:16:30;77.5;;;38.0;;
45382;SDS011;42455;51.660;5.824;2022-12-10T07:21:36;79.5;;;38.0;;
45382;SDS011;42455;51.660;5.824;2022-12-10T07:26:43;79.5;;;39.0;;
45382;SDS011;42455;51.660;5.824;2022-12-10T07:31:49;73.0;;;39.0;;
45382;SDS011;42455;51.660;5.824;2022-12-10T07:36:54;77.0;;;37.0;;
45382;SDS011;42455;51.660;5.824;2022-12-10T07:42:00;75.0;;;38.0;;
45382;SDS011;42455;51.660;5.824;2022-12-10T07:47:06;75.0;;;37.0;;
45382;SDS011;42455;51.660;5.824;2022-12-10T07:52:12;73.0;;;37.0;;
45382;SDS011;42455;51.660;5.824;2022-12-10T07:57:18;72.5;;;38.0;;
45382;SDS011;42455;51.660;5.824;2022-12-10T08:02:25;74.0;;;38.5;;
45382;SDS011;42455;51.660;5.824;2022-12-10T08:07:31;72.5;;;37.0;;
45382;SDS011;42455;51.660;5.824;2022-12-10T08:12:37;74.0;;;37.0;;
45382;SDS011;42455;51.660;5.824;2022-12-10T08:17:43;70.5;;;36.0;;
45382;SDS011;42455;51.660;5.824;2022-12-10T08:22:50;68.0;;;36.0;;
45382;SDS011;42455;51.660;5.824;2022-12-10T08:27:56;74.0;;;37.0;;
45382;SDS011;42455;51.660;5.824;2022-12-10T08:33:02;71.5;;;35.0;;
45382;SDS011;42455;51.660;5.824;2022-12-10T08:38:08;68.5;;;35.0;;
45382;SDS011;42455;51.660;5.824;2022-12-10T08:43:14;68.0;;;35.0;;
45382;SDS011;42455;51.660;5.824;2022-12-10T08:48:20;70.0;;;34.0;;
45382;SDS011;42455;51.660;5.824;2022-12-10T08:53:27;68.0;;;34.0;;
45382;SDS011;42455;51.660;5.824;2022-12-10T08:58:33;71.0;;;35.0;;
45382;SDS011;42455;51.660;5.824;2022-12-10T09:03:39;67.0;;;34.0;;
45382;SDS011;42455;51.660;5.824;2022-12-10T09:08:46;67.0;;;34.0;;
45382;SDS011;42455;51.660;5.824;2022-12-10T09:13:51;65.5;;;33.0;;
45382;SDS011;42455;51.660;5.824;2022-12-10T09:18:58;65.5;;;34.0;;
45382;SDS011;42455;51.660;5.824;2022-12-10T09:24:04;69.0;;;35.0;;
45382;SDS011;42455;51.660;5.824;2022-12-10T09:29:10;63.5;;;34.0;;
45382;SDS011;42455;51.660;5.824;2022-12-10T09:34:16;63.5;;;33.0;;
45382;SDS011;42455;51.660;5.824;2022-12-10T09:39:23;64.5;;;34.0;;
45382;SDS011;42455;51.660;5.824;2022-12-10T09:44:44;60.0;;;33.0;;
45382;SDS011;42455;51.660;5.824;2022-12-10T09:49:45;113.5;;;57.0;;
45382;SDS011;42455;51.660;5.824;2022-12-10T09:54:45;65.0;;;36.0;;
45382;SDS011;42455;51.660;5.824;2022-12-10T09:59:48;65.5;;;39.0;;
45382;SDS011;42455;51.660;5.824;2022-12-10T10:04:55;63.5;;;34.0;;
45382;SDS011;42455;51.660;5.824;2022-12-10T10:10:01;63.0;;;33.0;;
45382;SDS011;42455;51.660;5.824;2022-12-10T10:15:11;64.0;;;34.0;;
45382;SDS011;42455;51.660;5.824;2022-12-10T10:20:12;64.0;;;34.0;;
45382;SDS011;42455;51.660;5.824;2022-12-10T10:25:18;65.0;;;34.0;;
45382;SDS011;42455;51.660;5.824;2022-12-10T10:30:25;66.0;;;36.0;;
45382;SDS011;42455;51.660;5.824;2022-12-10T10:35:32;67.0;;;34.0;;
45382;SDS011;42455;51.660;5.824;2022-12-10T10:40:39;61.0;;;32.5;;
45382;SDS011;42455;51.660;5.824;2022-12-10T10:45:43;63.0;;;33.0;;
45382;SDS011;42455;51.660;5.824;2022-12-10T10:50:50;64.0;;;33.0;;
45382;SDS011;42455;51.660;5.824;2022-12-10T10:55:55;67.0;;;34.0;;
45382;SDS011;42455;51.660;5.824;2022-12-10T11:01:01;62.0;;;32.0;;
45382;SDS011;42455;51.660;5.824;2022-12-10T11:06:07;66.0;;;33.0;;
45382;SDS011;42455;51.660;5.824;2022-12-10T11:11:16;67.0;;;32.5;;
45382;SDS011;42455;51.660;5.824;2022-12-10T11:16:24;65.5;;;34.0;;
45382;SDS011;42455;51.660;5.824;2022-12-10T11:21:26;70.0;;;36.0;;
45382;SDS011;42455;51.660;5.824;2022-12-10T11:26:49;64.0;;;31.0;;
45382;SDS011;42455;51.660;5.824;2022-12-10T11:32:19;60.0;;;30.0;;
45382;SDS011;42455;51.660;5.824;2022-12-10T11:37:32;56.0;;;29.0;;
45382;SDS011;42455;51.660;5.824;2022-12-10T11:42:36;65.0;;;31.0;;
45382;SDS011;42455;51.660;5.824;2022-12-10T11:48:12;62.0;;;31.0;;
45382;SDS011;42455;51.660;5.824;2022-12-10T11:53:19;61.0;;;30.5;;
45382;SDS011;42455;51.660;5.824;2022-12-10T11:58:17;62.0;;;30.0;;
45382;SDS011;42455;51.660;5.824;2022-12-10T12:03:06;64.0;;;31.0;;
45382;SDS011;42455;51.660;5.824;2022-12-10T12:08:54;60.0;;;28.0;;
45382;SDS011;42455;51.660;5.824;2022-12-10T12:14:00;61.0;;;28.0;;
45382;SDS011;42455;51.660;5.824;2022-12-10T12:17:37;62.0;;;31.0;;
45382;SDS011;42455;51.660;5.824;2022-12-10T12:22:44;58.0;;;28.0;;
45382;SDS011;42455;51.660;5.824;2022-12-10T12:27:53;53.0;;;26.0;;
45382;SDS011;42455;51.660;5.824;2022-12-10T12:33:02;52.5;;;26.5;;
45382;SDS011;42455;51.660;5.824;2022-12-10T12:37:59;61.0;;;33.0;;
45382;SDS011;42455;51.660;5.824;2022-12-10T12:43:10;68.5;;;39.0;;
45382;SDS011;42455;51.660;5.824;2022-12-10T12:48:23;51.0;;;26.0;;
45382;SDS011;42455;51.660;5.824;2022-12-10T12:53:19;55.0;;;28.0;;
45382;SDS011;42455;51.660;5.824;2022-12-10T12:58:36;53.0;;;27.0;;
45382;SDS011;42455;51.660;5.824;2022-12-10T13:03:41;54.0;;;26.0;;
45382;SDS011;42455;51.660;5.824;2022-12-10T13:08:41;48.0;;;25.0;;
45382;SDS011;42455;51.660;5.824;2022-12-10T13:14:14;51.0;;;25.0;;
45382;SDS011;42455;51.660;5.824;2022-12-10T13:18:53;48.0;;;25.0;;
45382;SDS011;42455;51.660;5.824;2022-12-10T13:29:23;67.0;;;25.0;;
45382;SDS011;42455;51.660;5.824;2022-12-10T13:34:32;53.0;;;26.0;;
45382;SDS011;42455;51.660;5.824;2022-12-10T13:39:37;47.0;;;24.0;;
45382;SDS011;42455;51.660;5.824;2022-12-10T13:44:36;52.5;;;26.0;;
45382;SDS011;42455;51.660;5.824;2022-12-10T13:49:26;50.5;;;25.5;;
45382;SDS011;42455;51.660;5.824;2022-12-10T13:55:07;55.0;;;26.0;;
45382;SDS011;42455;51.660;5.824;2022-12-10T13:59:55;54.0;;;26.0;;
45382;SDS011;42455;51.660;5.824;2022-12-10T14:05:31;57.0;;;28.0;;
45382;SDS011;42455;51.660;5.824;2022-12-10T14:09:51;50.5;;;26.0;;
45382;SDS011;42455;51.660;5.824;2022-12-10T14:14:58;56.0;;;27.0;;
45382;SDS011;42455;51.660;5.824;2022-12-10T14:20:06;57.0;;;27.0;;
45382;SDS011;42455;51.660;5.824;2022-12-10T14:25:10;63.0;;;28.0;;
45382;SDS011;42455;51.660;5.824;2022-12-10T14:30:20;58.0;;;29.0;;
45382;SDS011;42455;51.660;5.824;2022-12-10T14:35:23;63.0;;;29.0;;
45382;SDS011;42455;51.660;5.824;2022-12-10T14:40:39;61.5;;;30.0;;
45382;SDS011;42455;51.660;5.824;2022-12-10T14:45:36;67.0;;;30.0;;
45382;SDS011;42455;51.660;5.824;2022-12-10T14:50:40;62.0;;;29.0;;
45382;SDS011;42455;51.660;5.824;2022-12-10T14:55:47;68.0;;;31.0;;
45382;SDS011;42455;51.660;5.824;2022-12-10T15:00:53;61.5;;;30.0;;
45382;SDS011;42455;51.660;5.824;2022-12-10T15:05:59;65.0;;;31.0;;
45382;SDS011;42455;51.660;5.824;2022-12-10T15:11:05;66.0;;;32.0;;
45382;SDS011;42455;51.660;5.824;2022-12-10T15:16:15;71.0;;;32.0;;
45382;SDS011;42455;51.660;5.824;2022-12-10T15:21:19;63.0;;;31.0;;
45382;SDS011;42455;51.660;5.824;2022-12-10T15:26:24;64.0;;;31.0;;
45382;SDS011;42455;51.660;5.824;2022-12-10T15:31:30;65.0;;;32.0;;
45382;SDS011;42455;51.660;5.824;2022-12-10T15:36:39;69.0;;;33.0;;
45382;SDS011;42455;51.660;5.824;2022-12-10T15:46:48;72.0;;;34.0;;
45382;SDS011;42455;51.660;5.824;2022-12-10T15:51:55;72.0;;;33.0;;
45382;SDS011;42455;51.660;5.824;2022-12-10T15:57:04;72.5;;;34.0;;
45382;SDS011;42455;51.660;5.824;2022-12-10T16:02:25;70.0;;;33.0;;
45382;SDS011;42455;51.660;5.824;2022-12-10T16:07:13;76.5;;;35.5;;
45382;SDS011;42455;51.660;5.824;2022-12-10T16:12:19;76.0;;;35.0;;
45382;SDS011;42455;51.660;5.824;2022-12-10T16:17:25;72.0;;;34.0;;
45382;SDS011;42455;51.660;5.824;2022-12-10T16:22:31;74.0;;;35.0;;
45382;SDS011;42455;51.660;5.824;2022-12-10T16:27:38;74.0;;;34.0;;
45382;SDS011;42455;51.660;5.824;2022-12-10T16:32:43;80.5;;;36.0;;
45382;SDS011;42455;51.660;5.824;2022-12-10T16:37:50;79.5;;;37.0;;
45382;SDS011;42455;51.660;5.824;2022-12-10T16:42:56;71.0;;;34.0;;
45382;SDS011;42455;51.660;5.824;2022-12-10T16:48:03;77.5;;;35.0;;
45382;SDS011;42455;51.660;5.824;2022-12-10T16:53:15;85.5;;;37.0;;
45382;SDS011;42455;51.660;5.824;2022-12-10T16:58:15;84.0;;;36.0;;
45382;SDS011;42455;51.660;5.824;2022-12-10T17:03:21;81.5;;;35.5;;
45382;SDS011;42455;51.660;5.824;2022-12-10T17:08:27;84.5;;;35.0;;
45382;SDS011;42455;51.660;5.824;2022-12-10T17:13:33;76.0;;;34.0;;
45382;SDS011;42455;51.660;5.824;2022-12-10T17:18:39;72.5;;;32.0;;
45382;SDS011;42455;51.660;5.824;2022-12-10T17:23:45;72.5;;;33.0;;
45382;SDS011;42455;51.660;5.824;2022-12-10T17:28:52;67.0;;;31.0;;
45382;SDS011;42455;51.660;5.824;2022-12-10T17:33:58;62.5;;;29.0;;
45382;SDS011;42455;51.660;5.824;2022-12-10T17:39:05;56.0;;;27.0;;
45382;SDS011;42455;51.660;5.824;2022-12-10T17:44:10;53.5;;;25.0;;
45382;SDS011;42455;51.660;5.824;2022-12-10T17:49:16;51.0;;;26.0;;
45382;SDS011;42455;51.660;5.824;2022-12-10T17:54:23;58.5;;;27.0;;
45382;SDS011;42455;51.660;5.824;2022-12-10T17:59:29;52.0;;;25.0;;
45382;SDS011;42455;51.660;5.824;2022-12-10T18:04:35;45.0;;;24.0;;
45382;SDS011;42455;51.660;5.824;2022-12-10T18:09:41;48.5;;;24.0;;
45382;SDS011;42455;51.660;5.824;2022-12-10T18:14:48;53.5;;;25.0;;
45382;SDS011;42455;51.660;5.824;2022-12-10T18:19:54;58.0;;;26.0;;
45382;SDS011;42455;51.660;5.824;2022-12-10T18:25:00;57.0;;;26.5;;
45382;SDS011;42455;51.660;5.824;2022-12-10T18:30:09;54.5;;;27.0;;
45382;SDS011;42455;51.660;5.824;2022-12-10T18:35:12;54.5;;;25.0;;
45382;SDS011;42455;51.660;5.824;2022-12-10T18:40:20;53.0;;;25.0;;
45382;SDS011;42455;51.660;5.824;2022-12-10T18:45:25;54.0;;;25.0;;
45382;SDS011;42455;51.660;5.824;2022-12-10T18:50:32;58.0;;;25.0;;
45382;SDS011;42455;51.660;5.824;2022-12-10T18:55:37;55.5;;;24.0;;
45382;SDS011;42455;51.660;5.824;2022-12-10T19:00:44;53.0;;;25.0;;
45382;SDS011;42455;51.660;5.824;2022-12-10T19:05:50;54.5;;;26.0;;
45382;SDS011;42455;51.660;5.824;2022-12-10T19:10:56;50.0;;;24.0;;
45382;SDS011;42455;51.660;5.824;2022-12-10T19:16:02;50.0;;;23.0;;
45382;SDS011;42455;51.660;5.824;2022-12-10T19:21:08;54.5;;;26.0;;
45382;SDS011;42455;51.660;5.824;2022-12-10T19:26:23;54.0;;;25.0;;
45382;SDS011;42455;51.660;5.824;2022-12-10T19:31:21;55.0;;;26.0;;
45382;SDS011;42455;51.660;5.824;2022-12-10T19:36:27;58.0;;;27.0;;
45382;SDS011;42455;51.660;5.824;2022-12-10T19:41:33;57.0;;;27.0;;
45382;SDS011;42455;51.660;5.824;2022-12-10T19:46:39;58.0;;;26.5;;
45382;SDS011;42455;51.660;5.824;2022-12-10T19:51:45;62.0;;;27.5;;
45382;SDS011;42455;51.660;5.824;2022-12-10T19:56:52;56.0;;;27.0;;
45382;SDS011;42455;51.660;5.824;2022-12-10T20:01:58;56.0;;;26.0;;
45382;SDS011;42455;51.660;5.824;2022-12-10T20:07:04;55.0;;;24.0;;
45382;SDS011;42455;51.660;5.824;2022-12-10T20:12:11;44.0;;;22.0;;
45382;SDS011;42455;51.660;5.824;2022-12-10T20:17:16;45.0;;;22.0;;
45382;SDS011;42455;51.660;5.824;2022-12-10T20:22:23;46.5;;;23.0;;
45382;SDS011;42455;51.660;5.824;2022-12-10T20:27:29;47.5;;;23.0;;
45382;SDS011;42455;51.660;5.824;2022-12-10T20:32:35;47.0;;;23.0;;
45382;SDS011;42455;51.660;5.824;2022-12-10T20:37:42;48.0;;;25.0;;
45382;SDS011;42455;51.660;5.824;2022-12-10T20:42:47;50.0;;;23.5;;
45382;SDS011;42455;51.660;5.824;2022-12-10T20:47:54;54.0;;;26.5;;
45382;SDS011;42455;51.660;5.824;2022-12-10T20:53:00;62.0;;;37.0;;
45382;SDS011;42455;51.660;5.824;2022-12-10T20:58:07;53.5;;;26.0;;
45382;SDS011;42455;51.660;5.824;2022-12-10T21:03:12;53.5;;;24.0;;
45382;SDS011;42455;51.660;5.824;2022-12-10T21:08:19;54.0;;;28.0;;
45382;SDS011;42455;51.660;5.824;2022-12-10T21:13:26;60.0;;;27.0;;
45382;SDS011;42455;51.660;5.824;2022-12-10T21:18:31;56.5;;;25.5;;
45382;SDS011;42455;51.660;5.824;2022-12-10T21:23:37;57.0;;;28.0;;
45382;SDS011;42455;51.660;5.824;2022-12-10T21:28:44;54.0;;;25.0;;
45382;SDS011;42455;51.660;5.824;2022-12-10T21:33:50;56.0;;;26.0;;
45382;SDS011;42455;51.660;5.824;2022-12-10T21:38:56;54.0;;;25.5;;
45382;SDS011;42455;51.660;5.824;2022-12-10T21:44:02;54.0;;;25.0;;
45382;SDS011;42455;51.660;5.824;2022-12-10T21:49:08;58.0;;;25.0;;
45382;SDS011;42455;51.660;5.824;2022-12-10T21:54:13;62.0;;;27.0;;
45382;SDS011;42455;51.660;5.824;2022-12-10T21:59:20;67.0;;;30.0;;
45382;SDS011;42455;51.660;5.824;2022-12-10T22:04:26;72.5;;;34.0;;
45382;SDS011;42455;51.660;5.824;2022-12-10T22:09:32;69.0;;;33.0;;
45382;SDS011;42455;51.660;5.824;2022-12-10T22:14:39;63.0;;;29.0;;
45382;SDS011;42455;51.660;5.824;2022-12-10T22:19:44;79.0;;;30.0;;
45382;SDS011;42455;51.660;5.824;2022-12-10T22:24:50;66.0;;;27.5;;
45382;SDS011;42455;51.660;5.824;2022-12-10T22:29:56;83.0;;;36.0;;
45382;SDS011;42455;51.660;5.824;2022-12-10T22:35:02;74.0;;;30.0;;
45382;SDS011;42455;51.660;5.824;2022-12-10T22:40:10;77.0;;;29.0;;
45382;SDS011;42455;51.660;5.824;2022-12-10T22:45:15;65.5;;;27.0;;
45382;SDS011;42455;51.660;5.824;2022-12-10T22:50:21;71.0;;;28.0;;
45382;SDS011;42455;51.660;5.824;2022-12-10T22:55:27;73.0;;;28.0;;
45382;SDS011;42455;51.660;5.824;2022-12-10T23:00:33;75.5;;;30.0;;
45382;SDS011;42455;51.660;5.824;2022-12-10T23:05:39;74.0;;;28.0;;
45382;SDS011;42455;51.660;5.824;2022-12-10T23:10:46;73.5;;;28.0;;
45382;SDS011;42455;51.660;5.824;2022-12-10T23:15:53;68.0;;;28.0;;
45382;SDS011;42455;51.660;5.824;2022-12-10T23:20:58;67.5;;;28.0;;
45382;SDS011;42455;51.660;5.824;2022-12-10T23:26:04;71.0;;;28.0;;
45382;SDS011;42455;51.660;5.824;2022-12-10T23:31:10;68.5;;;27.0;;
45382;SDS011;42455;51.660;5.824;2022-12-10T23:36:17;70.0;;;29.0;;
45382;SDS011;42455;51.660;5.824;2022-12-10T23:41:23;69.0;;;27.0;;
45382;SDS011;42455;51.660;5.824;2022-12-10T23:46:29;73.0;;;27.0;;
45382;SDS011;42455;51.660;5.824;2022-12-10T23:51:35;64.0;;;26.0;;
45382;SDS011;42455;51.660;5.824;2022-12-10T23:56:42;77.0;;;27.0;;
